sensor_id;sensor_type;location;lat;lon;timestamp;temperature;humidity
5779;DHT22;2916;49.798;10.022;2022-12-18T00:00:46;-8.30;99.90
5779;DHT22;2916;49.798;10.022;2022-12-18T00:03:15;-8.30;99.90
5779;DHT22;2916;49.798;10.022;2022-12-18T00:05:48;-8.20;99.90
5779;DHT22;2916;49.798;10.022;2022-12-18T00:08:16;-8.30;99.90
5779;DHT22;2916;49.798;10.022;2022-12-18T00:10:44;-8.40;99.90
5779;DHT22;2916;49.798;10.022;2022-12-18T00:13:11;-8.40;99.90
5779;DHT22;2916;49.798;10.022;2022-12-18T00:15:39;-8.50;99.90
5779;DHT22;2916;49.798;10.022;2022-12-18T00:18:06;-8.50;99.90
5779;DHT22;2916;49.798;10.022;2022-12-18T00:20:38;-8.50;99.90
5779;DHT22;2916;49.798;10.022;2022-12-18T00:23:05;-8.40;99.90
5779;DHT22;2916;49.798;10.022;2022-12-18T00:25:33;-8.40;99.90
5779;DHT22;2916;49.798;10.022;2022-12-18T00:28:00;-8.40;99.90
5779;DHT22;2916;49.798;10.022;2022-12-18T00:30:28;-8.40;99.90
5779;DHT22;2916;49.798;10.022;2022-12-18T00:32:55;-8.40;99.90
5779;DHT22;2916;49.798;10.022;2022-12-18T00:35:22;-8.40;99.90
5779;DHT22;2916;49.798;10.022;2022-12-18T00:37:50;-8.50;99.90
5779;DHT22;2916;49.798;10.022;2022-12-18T00:40:17;-8.50;99.90
5779;DHT22;2916;49.798;10.022;2022-12-18T00:42:44;-8.50;99.90
5779;DHT22;2916;49.798;10.022;2022-12-18T00:45:24;-8.50;99.90
5779;DHT22;2916;49.798;10.022;2022-12-18T00:47:52;-8.50;99.90
5779;DHT22;2916;49.798;10.022;2022-12-18T00:50:19;-8.50;99.90
5779;DHT22;2916;49.798;10.022;2022-12-18T00:52:46;-8.60;99.90
5779;DHT22;2916;49.798;10.022;2022-12-18T00:55:16;-8.60;99.90
5779;DHT22;2916;49.798;10.022;2022-12-18T00:57:43;-8.70;99.90
5779;DHT22;2916;49.798;10.022;2022-12-18T01:00:13;-8.60;99.90
5779;DHT22;2916;49.798;10.022;2022-12-18T01:02:40;-8.60;99.90
5779;DHT22;2916;49.798;10.022;2022-12-18T01:05:08;-8.60;99.90
5779;DHT22;2916;49.798;10.022;2022-12-18T01:07:36;-8.70;99.90
5779;DHT22;2916;49.798;10.022;2022-12-18T01:10:03;-8.70;99.90
5779;DHT22;2916;49.798;10.022;2022-12-18T01:12:33;-8.70;99.90
5779;DHT22;2916;49.798;10.022;2022-12-18T01:15:00;-8.70;99.90
5779;DHT22;2916;49.798;10.022;2022-12-18T01:17:26;-8.70;99.90
5779;DHT22;2916;49.798;10.022;2022-12-18T01:19:53;-8.70;99.90
5779;DHT22;2916;49.798;10.022;2022-12-18T01:22:20;-8.70;99.90
5779;DHT22;2916;49.798;10.022;2022-12-18T01:24:47;-8.70;99.90
5779;DHT22;2916;49.798;10.022;2022-12-18T01:27:14;-8.80;99.90
5779;DHT22;2916;49.798;10.022;2022-12-18T01:29:43;-8.80;99.90
5779;DHT22;2916;49.798;10.022;2022-12-18T01:32:10;-8.80;99.90
5779;DHT22;2916;49.798;10.022;2022-12-18T01:34:37;-8.70;99.90
5779;DHT22;2916;49.798;10.022;2022-12-18T01:37:04;-8.60;99.90
5779;DHT22;2916;49.798;10.022;2022-12-18T01:39:32;-8.60;99.90
5779;DHT22;2916;49.798;10.022;2022-12-18T01:41:59;-8.50;99.90
5779;DHT22;2916;49.798;10.022;2022-12-18T01:44:56;-8.50;99.90
5779;DHT22;2916;49.798;10.022;2022-12-18T01:47:25;-8.40;99.90
5779;DHT22;2916;49.798;10.022;2022-12-18T01:49:53;-8.40;99.90
5779;DHT22;2916;49.798;10.022;2022-12-18T01:52:21;-8.60;99.90
5779;DHT22;2916;49.798;10.022;2022-12-18T01:54:50;-8.70;99.90
5779;DHT22;2916;49.798;10.022;2022-12-18T01:57:17;-8.70;99.90
5779;DHT22;2916;49.798;10.022;2022-12-18T01:59:47;-8.80;99.90
5779;DHT22;2916;49.798;10.022;2022-12-18T02:02:17;-8.80;99.90
5779;DHT22;2916;49.798;10.022;2022-12-18T02:04:45;-8.90;99.90
5779;DHT22;2916;49.798;10.022;2022-12-18T02:07:19;-8.90;99.90
5779;DHT22;2916;49.798;10.022;2022-12-18T02:09:51;-8.80;99.90
5779;DHT22;2916;49.798;10.022;2022-12-18T02:12:22;-8.80;99.90
5779;DHT22;2916;49.798;10.022;2022-12-18T02:14:57;-8.80;99.90
5779;DHT22;2916;49.798;10.022;2022-12-18T02:17:33;-8.90;99.90
5779;DHT22;2916;49.798;10.022;2022-12-18T02:20:06;-8.80;99.90
5779;DHT22;2916;49.798;10.022;2022-12-18T02:22:41;-8.80;99.90
5779;DHT22;2916;49.798;10.022;2022-12-18T02:25:21;-8.80;99.90
5779;DHT22;2916;49.798;10.022;2022-12-18T02:27:54;-8.70;99.90
5779;DHT22;2916;49.798;10.022;2022-12-18T02:30:25;-8.70;99.90
5779;DHT22;2916;49.798;10.022;2022-12-18T02:32:54;-8.80;99.90
5779;DHT22;2916;49.798;10.022;2022-12-18T02:35:24;-8.80;99.90
5779;DHT22;2916;49.798;10.022;2022-12-18T02:37:53;-8.90;99.90
5779;DHT22;2916;49.798;10.022;2022-12-18T02:40:22;-8.90;99.90
5779;DHT22;2916;49.798;10.022;2022-12-18T02:42:50;-9.00;99.90
5779;DHT22;2916;49.798;10.022;2022-12-18T02:45:18;-9.00;99.90
5779;DHT22;2916;49.798;10.022;2022-12-18T02:47:48;-9.00;99.90
5779;DHT22;2916;49.798;10.022;2022-12-18T02:50:21;-9.00;99.90
5779;DHT22;2916;49.798;10.022;2022-12-18T02:52:56;-9.00;99.90
5779;DHT22;2916;49.798;10.022;2022-12-18T02:55:34;-8.90;99.90
5779;DHT22;2916;49.798;10.022;2022-12-18T02:58:09;-8.80;99.90
5779;DHT22;2916;49.798;10.022;2022-12-18T03:00:43;-8.80;99.90
5779;DHT22;2916;49.798;10.022;2022-12-18T03:03:14;-8.80;99.90
5779;DHT22;2916;49.798;10.022;2022-12-18T03:05:45;-8.80;99.90
5779;DHT22;2916;49.798;10.022;2022-12-18T03:08:20;-8.80;99.90
5779;DHT22;2916;49.798;10.022;2022-12-18T03:10:52;-8.90;99.90
5779;DHT22;2916;49.798;10.022;2022-12-18T03:13:24;-8.90;99.90
5779;DHT22;2916;49.798;10.022;2022-12-18T03:15:57;-9.00;99.90
5779;DHT22;2916;49.798;10.022;2022-12-18T03:18:29;-9.00;99.90
5779;DHT22;2916;49.798;10.022;2022-12-18T03:20:59;-9.00;99.90
5779;DHT22;2916;49.798;10.022;2022-12-18T03:23:33;-9.00;99.90
5779;DHT22;2916;49.798;10.022;2022-12-18T03:26:05;-9.00;99.90
5779;DHT22;2916;49.798;10.022;2022-12-18T03:28:36;-9.00;99.90
5779;DHT22;2916;49.798;10.022;2022-12-18T03:31:09;-9.00;99.90
5779;DHT22;2916;49.798;10.022;2022-12-18T03:33:39;-9.10;99.90
5779;DHT22;2916;49.798;10.022;2022-12-18T03:36:07;-9.10;99.90
5779;DHT22;2916;49.798;10.022;2022-12-18T03:38:34;-9.10;99.90
5779;DHT22;2916;49.798;10.022;2022-12-18T03:41:07;-9.10;99.90
5779;DHT22;2916;49.798;10.022;2022-12-18T03:43:43;-9.00;99.90
5779;DHT22;2916;49.798;10.022;2022-12-18T03:46:20;-8.90;99.90
5779;DHT22;2916;49.798;10.022;2022-12-18T03:48:55;-8.90;99.90
5779;DHT22;2916;49.798;10.022;2022-12-18T03:51:28;-8.80;99.90
5779;DHT22;2916;49.798;10.022;2022-12-18T03:53:58;-8.80;99.90
5779;DHT22;2916;49.798;10.022;2022-12-18T03:56:29;-8.70;99.90
5779;DHT22;2916;49.798;10.022;2022-12-18T03:58:59;-8.70;99.90
5779;DHT22;2916;49.798;10.022;2022-12-18T04:01:32;-8.70;99.90
5779;DHT22;2916;49.798;10.022;2022-12-18T04:04:01;-8.70;99.90
5779;DHT22;2916;49.798;10.022;2022-12-18T04:06:29;-8.80;99.90
5779;DHT22;2916;49.798;10.022;2022-12-18T04:08:57;-8.80;99.90
5779;DHT22;2916;49.798;10.022;2022-12-18T04:11:25;-8.90;99.90
5779;DHT22;2916;49.798;10.022;2022-12-18T04:13:55;-9.00;99.90
5779;DHT22;2916;49.798;10.022;2022-12-18T04:16:22;-9.00;99.90
5779;DHT22;2916;49.798;10.022;2022-12-18T04:18:51;-9.00;99.90
5779;DHT22;2916;49.798;10.022;2022-12-18T04:21:18;-9.10;99.90
5779;DHT22;2916;49.798;10.022;2022-12-18T04:23:45;-9.00;99.90
5779;DHT22;2916;49.798;10.022;2022-12-18T04:26:12;-9.00;99.90
5779;DHT22;2916;49.798;10.022;2022-12-18T04:28:39;-9.00;99.90
5779;DHT22;2916;49.798;10.022;2022-12-18T04:31:06;-9.00;99.90
5779;DHT22;2916;49.798;10.022;2022-12-18T04:33:33;-9.00;99.90
5779;DHT22;2916;49.798;10.022;2022-12-18T04:36:01;-9.00;99.90
5779;DHT22;2916;49.798;10.022;2022-12-18T04:38:28;-9.00;99.90
5779;DHT22;2916;49.798;10.022;2022-12-18T04:40:55;-9.00;99.90
5779;DHT22;2916;49.798;10.022;2022-12-18T04:43:22;-9.00;99.90
5779;DHT22;2916;49.798;10.022;2022-12-18T04:45:49;-9.10;99.90
5779;DHT22;2916;49.798;10.022;2022-12-18T04:48:16;-9.10;99.90
5779;DHT22;2916;49.798;10.022;2022-12-18T04:50:43;-9.20;99.90
5779;DHT22;2916;49.798;10.022;2022-12-18T04:53:11;-9.20;99.90
5779;DHT22;2916;49.798;10.022;2022-12-18T04:55:38;-9.10;99.90
5779;DHT22;2916;49.798;10.022;2022-12-18T04:58:05;-9.00;99.90
5779;DHT22;2916;49.798;10.022;2022-12-18T05:00:32;-9.00;99.90
5779;DHT22;2916;49.798;10.022;2022-12-18T05:03:00;-9.00;99.90
5779;DHT22;2916;49.798;10.022;2022-12-18T05:05:27;-8.90;99.90
5779;DHT22;2916;49.798;10.022;2022-12-18T05:07:54;-9.00;99.90
5779;DHT22;2916;49.798;10.022;2022-12-18T05:10:23;-9.00;99.90
5779;DHT22;2916;49.798;10.022;2022-12-18T05:12:49;-9.00;99.90
5779;DHT22;2916;49.798;10.022;2022-12-18T05:15:33;-9.00;99.90
5779;DHT22;2916;49.798;10.022;2022-12-18T05:18:00;-9.00;99.90
5779;DHT22;2916;49.798;10.022;2022-12-18T05:20:28;-9.10;99.90
5779;DHT22;2916;49.798;10.022;2022-12-18T05:22:55;-9.20;99.90
5779;DHT22;2916;49.798;10.022;2022-12-18T05:25:24;-9.30;99.90
5779;DHT22;2916;49.798;10.022;2022-12-18T05:27:51;-9.40;99.90
5779;DHT22;2916;49.798;10.022;2022-12-18T05:30:18;-9.40;99.90
5779;DHT22;2916;49.798;10.022;2022-12-18T05:32:45;-9.50;99.90
5779;DHT22;2916;49.798;10.022;2022-12-18T05:35:12;-9.40;99.90
5779;DHT22;2916;49.798;10.022;2022-12-18T05:37:39;-9.30;99.90
5779;DHT22;2916;49.798;10.022;2022-12-18T05:40:07;-9.30;99.90
5779;DHT22;2916;49.798;10.022;2022-12-18T05:42:35;-9.30;99.90
5779;DHT22;2916;49.798;10.022;2022-12-18T05:45:02;-9.30;99.90
5779;DHT22;2916;49.798;10.022;2022-12-18T05:47:29;-9.30;99.90
5779;DHT22;2916;49.798;10.022;2022-12-18T05:49:56;-9.30;99.90
5779;DHT22;2916;49.798;10.022;2022-12-18T05:52:23;-9.40;99.90
5779;DHT22;2916;49.798;10.022;2022-12-18T05:54:50;-9.40;99.90
5779;DHT22;2916;49.798;10.022;2022-12-18T05:57:17;-9.50;99.90
5779;DHT22;2916;49.798;10.022;2022-12-18T05:59:46;-9.50;99.90
5779;DHT22;2916;49.798;10.022;2022-12-18T06:02:13;-9.50;99.90
5779;DHT22;2916;49.798;10.022;2022-12-18T06:04:39;-9.50;99.90
5779;DHT22;2916;49.798;10.022;2022-12-18T06:07:06;-9.50;99.90
5779;DHT22;2916;49.798;10.022;2022-12-18T06:09:33;-9.50;99.90
5779;DHT22;2916;49.798;10.022;2022-12-18T06:12:00;-9.50;99.90
5779;DHT22;2916;49.798;10.022;2022-12-18T06:14:27;-9.30;99.90
5779;DHT22;2916;49.798;10.022;2022-12-18T06:16:55;-9.30;99.90
5779;DHT22;2916;49.798;10.022;2022-12-18T06:19:22;-9.10;99.90
5779;DHT22;2916;49.798;10.022;2022-12-18T06:21:49;-9.00;99.90
5779;DHT22;2916;49.798;10.022;2022-12-18T06:24:16;-8.90;99.90
5779;DHT22;2916;49.798;10.022;2022-12-18T06:26:43;-8.70;99.90
5779;DHT22;2916;49.798;10.022;2022-12-18T06:29:10;-8.70;99.90
5779;DHT22;2916;49.798;10.022;2022-12-18T06:31:37;-8.60;99.90
5779;DHT22;2916;49.798;10.022;2022-12-18T06:34:05;-8.50;99.90
5779;DHT22;2916;49.798;10.022;2022-12-18T06:36:33;-8.40;99.90
5779;DHT22;2916;49.798;10.022;2022-12-18T06:39:00;-8.30;99.90
5779;DHT22;2916;49.798;10.022;2022-12-18T06:41:27;-8.30;99.90
5779;DHT22;2916;49.798;10.022;2022-12-18T06:43:54;-8.40;99.90
5779;DHT22;2916;49.798;10.022;2022-12-18T06:46:21;-8.40;99.90
5779;DHT22;2916;49.798;10.022;2022-12-18T06:48:49;-8.50;99.90
5779;DHT22;2916;49.798;10.022;2022-12-18T06:51:22;-8.50;99.90
5779;DHT22;2916;49.798;10.022;2022-12-18T06:53:49;-8.50;99.90
5779;DHT22;2916;49.798;10.022;2022-12-18T06:56:16;-8.50;99.90
5779;DHT22;2916;49.798;10.022;2022-12-18T06:58:43;-8.50;99.90
5779;DHT22;2916;49.798;10.022;2022-12-18T07:01:11;-8.40;99.90
5779;DHT22;2916;49.798;10.022;2022-12-18T07:03:39;-8.40;99.90
5779;DHT22;2916;49.798;10.022;2022-12-18T07:06:11;-8.40;99.90
5779;DHT22;2916;49.798;10.022;2022-12-18T07:08:40;-8.40;99.90
5779;DHT22;2916;49.798;10.022;2022-12-18T07:11:07;-8.30;99.90
5779;DHT22;2916;49.798;10.022;2022-12-18T07:13:34;-8.30;99.90
5779;DHT22;2916;49.798;10.022;2022-12-18T07:16:06;-8.30;99.90
5779;DHT22;2916;49.798;10.022;2022-12-18T07:18:34;-8.30;99.90
5779;DHT22;2916;49.798;10.022;2022-12-18T07:21:03;-8.20;99.90
5779;DHT22;2916;49.798;10.022;2022-12-18T07:23:31;-8.20;99.90
5779;DHT22;2916;49.798;10.022;2022-12-18T07:26:02;-8.20;99.90
5779;DHT22;2916;49.798;10.022;2022-12-18T07:28:30;-8.10;99.90
5779;DHT22;2916;49.798;10.022;2022-12-18T07:30:57;-8.00;99.90
5779;DHT22;2916;49.798;10.022;2022-12-18T07:33:24;-7.90;99.90
5779;DHT22;2916;49.798;10.022;2022-12-18T07:35:51;-8.00;99.90
5779;DHT22;2916;49.798;10.022;2022-12-18T07:38:18;-8.10;99.90
5779;DHT22;2916;49.798;10.022;2022-12-18T07:40:45;-8.00;99.90
5779;DHT22;2916;49.798;10.022;2022-12-18T07:43:13;-8.00;99.90
5779;DHT22;2916;49.798;10.022;2022-12-18T07:45:40;-7.90;99.90
5779;DHT22;2916;49.798;10.022;2022-12-18T07:48:07;-7.90;99.90
5779;DHT22;2916;49.798;10.022;2022-12-18T07:50:34;-7.80;99.90
5779;DHT22;2916;49.798;10.022;2022-12-18T07:53:00;-7.70;99.90
5779;DHT22;2916;49.798;10.022;2022-12-18T07:55:29;-7.60;99.90
5779;DHT22;2916;49.798;10.022;2022-12-18T07:57:56;-7.50;99.90
5779;DHT22;2916;49.798;10.022;2022-12-18T08:00:24;-7.40;99.90
5779;DHT22;2916;49.798;10.022;2022-12-18T08:02:51;-7.40;99.90
5779;DHT22;2916;49.798;10.022;2022-12-18T08:05:18;-7.40;99.90
5779;DHT22;2916;49.798;10.022;2022-12-18T08:07:46;-7.40;99.90
5779;DHT22;2916;49.798;10.022;2022-12-18T08:10:13;-7.40;99.90
5779;DHT22;2916;49.798;10.022;2022-12-18T08:12:40;-7.40;99.90
5779;DHT22;2916;49.798;10.022;2022-12-18T08:15:08;-7.40;99.90
5779;DHT22;2916;49.798;10.022;2022-12-18T08:17:36;-7.30;99.90
5779;DHT22;2916;49.798;10.022;2022-12-18T08:20:04;-7.30;99.90
5779;DHT22;2916;49.798;10.022;2022-12-18T08:22:33;-7.20;99.90
5779;DHT22;2916;49.798;10.022;2022-12-18T08:25:06;-7.20;99.90
5779;DHT22;2916;49.798;10.022;2022-12-18T08:27:33;-7.10;99.90
5779;DHT22;2916;49.798;10.022;2022-12-18T08:30:00;-7.00;99.90
5779;DHT22;2916;49.798;10.022;2022-12-18T08:32:28;-6.90;99.90
5779;DHT22;2916;49.798;10.022;2022-12-18T08:34:56;-6.80;99.90
5779;DHT22;2916;49.798;10.022;2022-12-18T08:37:23;-6.70;99.90
5779;DHT22;2916;49.798;10.022;2022-12-18T08:39:50;-6.60;99.90
5779;DHT22;2916;49.798;10.022;2022-12-18T08:42:17;-6.50;99.90
5779;DHT22;2916;49.798;10.022;2022-12-18T08:45:02;-6.50;99.90
5779;DHT22;2916;49.798;10.022;2022-12-18T08:47:29;-6.40;99.90
5779;DHT22;2916;49.798;10.022;2022-12-18T08:49:57;-6.40;99.90
5779;DHT22;2916;49.798;10.022;2022-12-18T08:52:24;-6.40;99.90
5779;DHT22;2916;49.798;10.022;2022-12-18T08:54:51;-6.30;99.90
5779;DHT22;2916;49.798;10.022;2022-12-18T08:57:18;-6.30;99.90
5779;DHT22;2916;49.798;10.022;2022-12-18T08:59:45;-6.20;99.90
5779;DHT22;2916;49.798;10.022;2022-12-18T09:02:12;-6.20;99.90
5779;DHT22;2916;49.798;10.022;2022-12-18T09:04:39;-6.10;99.90
5779;DHT22;2916;49.798;10.022;2022-12-18T09:07:07;-6.00;99.90
5779;DHT22;2916;49.798;10.022;2022-12-18T09:09:35;-5.90;99.90
5779;DHT22;2916;49.798;10.022;2022-12-18T09:12:03;-5.90;99.90
5779;DHT22;2916;49.798;10.022;2022-12-18T09:14:30;-5.90;99.90
5779;DHT22;2916;49.798;10.022;2022-12-18T09:16:56;-5.80;99.90
5779;DHT22;2916;49.798;10.022;2022-12-18T09:19:23;-5.80;99.90
5779;DHT22;2916;49.798;10.022;2022-12-18T09:21:50;-5.80;99.90
5779;DHT22;2916;49.798;10.022;2022-12-18T09:24:19;-5.80;99.90
5779;DHT22;2916;49.798;10.022;2022-12-18T09:26:53;-5.70;99.90
5779;DHT22;2916;49.798;10.022;2022-12-18T09:29:21;-5.70;99.90
5779;DHT22;2916;49.798;10.022;2022-12-18T09:31:48;-5.50;99.90
5779;DHT22;2916;49.798;10.022;2022-12-18T09:34:16;-5.50;99.90
5779;DHT22;2916;49.798;10.022;2022-12-18T09:36:43;-5.50;99.90
5779;DHT22;2916;49.798;10.022;2022-12-18T09:39:10;-5.40;99.90
5779;DHT22;2916;49.798;10.022;2022-12-18T09:41:47;-5.30;99.90
5779;DHT22;2916;49.798;10.022;2022-12-18T09:44:23;-5.30;99.90
5779;DHT22;2916;49.798;10.022;2022-12-18T09:47:06;-5.30;99.90
5779;DHT22;2916;49.798;10.022;2022-12-18T09:49:38;-5.30;99.90
5779;DHT22;2916;49.798;10.022;2022-12-18T09:52:11;-5.20;99.90
5779;DHT22;2916;49.798;10.022;2022-12-18T09:54:41;-5.10;99.90
5779;DHT22;2916;49.798;10.022;2022-12-18T09:57:14;-5.10;99.90
5779;DHT22;2916;49.798;10.022;2022-12-18T09:59:45;-5.10;99.90
5779;DHT22;2916;49.798;10.022;2022-12-18T10:02:15;-5.10;99.90
5779;DHT22;2916;49.798;10.022;2022-12-18T10:04:43;-5.00;99.90
5779;DHT22;2916;49.798;10.022;2022-12-18T10:07:18;-5.00;99.90
5779;DHT22;2916;49.798;10.022;2022-12-18T10:09:53;-4.90;99.90
5779;DHT22;2916;49.798;10.022;2022-12-18T10:12:30;-4.90;99.90
5779;DHT22;2916;49.798;10.022;2022-12-18T10:15:04;-4.90;99.90
5779;DHT22;2916;49.798;10.022;2022-12-18T10:17:39;-4.90;99.90
5779;DHT22;2916;49.798;10.022;2022-12-18T10:20:13;-4.70;99.90
5779;DHT22;2916;49.798;10.022;2022-12-18T10:22:50;-4.70;99.90
5779;DHT22;2916;49.798;10.022;2022-12-18T10:25:22;-4.70;99.90
5779;DHT22;2916;49.798;10.022;2022-12-18T10:27:56;-4.60;99.90
5779;DHT22;2916;49.798;10.022;2022-12-18T10:30:25;-4.50;99.90
5779;DHT22;2916;49.798;10.022;2022-12-18T10:32:52;-4.50;99.90
5779;DHT22;2916;49.798;10.022;2022-12-18T10:35:22;-4.50;99.90
5779;DHT22;2916;49.798;10.022;2022-12-18T10:38:07;-4.40;99.90
5779;DHT22;2916;49.798;10.022;2022-12-18T10:40:52;-4.40;99.90
5779;DHT22;2916;49.798;10.022;2022-12-18T10:43:23;-4.30;99.90
5779;DHT22;2916;49.798;10.022;2022-12-18T10:46:00;-4.20;99.90
5779;DHT22;2916;49.798;10.022;2022-12-18T10:48:28;-4.20;99.90
5779;DHT22;2916;49.798;10.022;2022-12-18T10:50:56;-4.00;99.90
5779;DHT22;2916;49.798;10.022;2022-12-18T10:53:26;-4.00;99.90
5779;DHT22;2916;49.798;10.022;2022-12-18T10:55:56;-3.90;99.90
5779;DHT22;2916;49.798;10.022;2022-12-18T10:58:30;-4.00;99.90
5779;DHT22;2916;49.798;10.022;2022-12-18T11:01:04;-4.00;99.90
5779;DHT22;2916;49.798;10.022;2022-12-18T11:03:34;-4.00;99.90
5779;DHT22;2916;49.798;10.022;2022-12-18T11:06:04;-3.80;99.90
5779;DHT22;2916;49.798;10.022;2022-12-18T11:08:31;-3.70;99.90
5779;DHT22;2916;49.798;10.022;2022-12-18T11:10:58;-3.60;99.90
5779;DHT22;2916;49.798;10.022;2022-12-18T11:13:28;-3.50;99.90
5779;DHT22;2916;49.798;10.022;2022-12-18T11:15:56;-3.50;99.90
5779;DHT22;2916;49.798;10.022;2022-12-18T11:18:26;-3.40;99.90
5779;DHT22;2916;49.798;10.022;2022-12-18T11:20:55;-3.40;99.90
5779;DHT22;2916;49.798;10.022;2022-12-18T11:23:24;-3.40;99.90
5779;DHT22;2916;49.798;10.022;2022-12-18T11:25:53;-3.30;99.90
5779;DHT22;2916;49.798;10.022;2022-12-18T11:28:45;-3.20;99.90
5779;DHT22;2916;49.798;10.022;2022-12-18T11:31:24;-3.30;99.90
5779;DHT22;2916;49.798;10.022;2022-12-18T11:34:05;-3.20;99.90
5779;DHT22;2916;49.798;10.022;2022-12-18T11:36:39;-3.20;99.90
5779;DHT22;2916;49.798;10.022;2022-12-18T11:39:14;-3.10;99.90
5779;DHT22;2916;49.798;10.022;2022-12-18T11:41:48;-3.20;99.90
5779;DHT22;2916;49.798;10.022;2022-12-18T11:44:42;-3.10;99.90
5779;DHT22;2916;49.798;10.022;2022-12-18T11:47:13;-3.00;99.90
5779;DHT22;2916;49.798;10.022;2022-12-18T11:49:42;-3.10;99.90
5779;DHT22;2916;49.798;10.022;2022-12-18T11:52:16;-3.10;99.90
5779;DHT22;2916;49.798;10.022;2022-12-18T11:54:45;-3.10;99.90
5779;DHT22;2916;49.798;10.022;2022-12-18T11:57:27;-3.10;99.90
5779;DHT22;2916;49.798;10.022;2022-12-18T12:00:07;-3.00;99.90
5779;DHT22;2916;49.798;10.022;2022-12-18T12:02:47;-3.10;99.90
5779;DHT22;2916;49.798;10.022;2022-12-18T12:05:31;-3.00;99.90
5779;DHT22;2916;49.798;10.022;2022-12-18T12:08:07;-3.00;99.90
5779;DHT22;2916;49.798;10.022;2022-12-18T12:10:49;-2.90;99.90
5779;DHT22;2916;49.798;10.022;2022-12-18T12:13:30;-2.80;99.90
5779;DHT22;2916;49.798;10.022;2022-12-18T12:16:10;-2.90;99.90
5779;DHT22;2916;49.798;10.022;2022-12-18T12:19:00;-2.90;99.90
5779;DHT22;2916;49.798;10.022;2022-12-18T12:21:35;-2.80;99.90
5779;DHT22;2916;49.798;10.022;2022-12-18T12:24:18;-2.80;99.90
5779;DHT22;2916;49.798;10.022;2022-12-18T12:26:55;-2.70;99.90
5779;DHT22;2916;49.798;10.022;2022-12-18T12:29:36;-2.60;99.90
5779;DHT22;2916;49.798;10.022;2022-12-18T12:32:17;-2.70;99.90
5779;DHT22;2916;49.798;10.022;2022-12-18T12:34:54;-2.60;99.90
5779;DHT22;2916;49.798;10.022;2022-12-18T12:37:36;-2.60;99.90
5779;DHT22;2916;49.798;10.022;2022-12-18T12:40:06;-2.60;99.90
5779;DHT22;2916;49.798;10.022;2022-12-18T12:42:40;-2.60;99.90
5779;DHT22;2916;49.798;10.022;2022-12-18T12:45:30;-2.50;99.90
5779;DHT22;2916;49.798;10.022;2022-12-18T12:48:01;-2.40;99.90
5779;DHT22;2916;49.798;10.022;2022-12-18T12:50:31;-2.40;99.90
5779;DHT22;2916;49.798;10.022;2022-12-18T12:53:01;-2.40;99.90
5779;DHT22;2916;49.798;10.022;2022-12-18T12:55:32;-2.40;99.90
5779;DHT22;2916;49.798;10.022;2022-12-18T12:58:06;-2.40;99.90
5779;DHT22;2916;49.798;10.022;2022-12-18T13:00:43;-2.40;99.90
5779;DHT22;2916;49.798;10.022;2022-12-18T13:03:24;-2.30;99.90
5779;DHT22;2916;49.798;10.022;2022-12-18T13:05:58;-2.30;99.90
5779;DHT22;2916;49.798;10.022;2022-12-18T13:08:29;-2.30;99.90
5779;DHT22;2916;49.798;10.022;2022-12-18T13:10:57;-2.30;99.90
5779;DHT22;2916;49.798;10.022;2022-12-18T13:13:48;-2.30;99.90
5779;DHT22;2916;49.798;10.022;2022-12-18T13:16:18;-2.20;99.90
5779;DHT22;2916;49.798;10.022;2022-12-18T13:18:50;-2.20;99.90
5779;DHT22;2916;49.798;10.022;2022-12-18T13:21:23;-2.20;99.90
5779;DHT22;2916;49.798;10.022;2022-12-18T13:23:53;-2.20;99.90
5779;DHT22;2916;49.798;10.022;2022-12-18T13:26:33;-2.20;99.90
5779;DHT22;2916;49.798;10.022;2022-12-18T13:29:02;-2.20;99.90
5779;DHT22;2916;49.798;10.022;2022-12-18T13:34:36;-2.20;99.90
5779;DHT22;2916;49.798;10.022;2022-12-18T13:37:41;-2.20;99.90
5779;DHT22;2916;49.798;10.022;2022-12-18T13:43:28;-2.10;99.90
5779;DHT22;2916;49.798;10.022;2022-12-18T13:46:05;-2.10;99.90
5779;DHT22;2916;49.798;10.022;2022-12-18T13:48:35;-2.10;99.90
5779;DHT22;2916;49.798;10.022;2022-12-18T13:51:06;-2.00;99.90
5779;DHT22;2916;49.798;10.022;2022-12-18T13:53:37;-2.10;99.90
5779;DHT22;2916;49.798;10.022;2022-12-18T13:56:06;-2.10;99.90
5779;DHT22;2916;49.798;10.022;2022-12-18T13:58:33;-2.10;99.90
5779;DHT22;2916;49.798;10.022;2022-12-18T14:01:00;-2.10;99.90
5779;DHT22;2916;49.798;10.022;2022-12-18T14:03:30;-2.10;99.90
5779;DHT22;2916;49.798;10.022;2022-12-18T14:06:04;-2.10;99.90
5779;DHT22;2916;49.798;10.022;2022-12-18T14:08:37;-2.10;99.90
5779;DHT22;2916;49.798;10.022;2022-12-18T14:11:06;-2.20;99.90
5779;DHT22;2916;49.798;10.022;2022-12-18T14:13:36;-2.20;99.90
5779;DHT22;2916;49.798;10.022;2022-12-18T14:16:05;-2.20;99.90
5779;DHT22;2916;49.798;10.022;2022-12-18T14:18:42;-2.20;99.90
5779;DHT22;2916;49.798;10.022;2022-12-18T14:21:19;-2.20;99.90
5779;DHT22;2916;49.798;10.022;2022-12-18T14:23:47;-2.10;99.90
5779;DHT22;2916;49.798;10.022;2022-12-18T14:26:25;-2.10;99.90
5779;DHT22;2916;49.798;10.022;2022-12-18T14:28:54;-2.10;99.90
5779;DHT22;2916;49.798;10.022;2022-12-18T14:31:23;-2.10;99.90
5779;DHT22;2916;49.798;10.022;2022-12-18T14:33:52;-2.10;99.90
5779;DHT22;2916;49.798;10.022;2022-12-18T14:36:21;-2.10;99.90
5779;DHT22;2916;49.798;10.022;2022-12-18T14:38:50;-2.10;99.90
5779;DHT22;2916;49.798;10.022;2022-12-18T14:41:18;-2.10;99.90
5779;DHT22;2916;49.798;10.022;2022-12-18T14:43:47;-2.20;99.90
5779;DHT22;2916;49.798;10.022;2022-12-18T14:46:33;-2.10;99.90
5779;DHT22;2916;49.798;10.022;2022-12-18T14:49:02;-2.10;99.90
5779;DHT22;2916;49.798;10.022;2022-12-18T14:51:32;-2.10;99.90
5779;DHT22;2916;49.798;10.022;2022-12-18T14:54:01;-2.10;99.90
5779;DHT22;2916;49.798;10.022;2022-12-18T14:56:30;-2.10;99.90
5779;DHT22;2916;49.798;10.022;2022-12-18T14:58:59;-2.10;99.90
5779;DHT22;2916;49.798;10.022;2022-12-18T15:01:28;-2.10;99.90
5779;DHT22;2916;49.798;10.022;2022-12-18T15:03:57;-2.20;99.90
5779;DHT22;2916;49.798;10.022;2022-12-18T15:06:28;-2.20;99.90
5779;DHT22;2916;49.798;10.022;2022-12-18T15:08:57;-2.20;99.90
5779;DHT22;2916;49.798;10.022;2022-12-18T15:11:31;-2.20;99.90
5779;DHT22;2916;49.798;10.022;2022-12-18T15:13:59;-2.20;99.90
5779;DHT22;2916;49.798;10.022;2022-12-18T15:16:26;-2.20;99.90
5779;DHT22;2916;49.798;10.022;2022-12-18T15:18:53;-2.20;99.90
5779;DHT22;2916;49.798;10.022;2022-12-18T15:21:21;-2.20;99.90
5779;DHT22;2916;49.798;10.022;2022-12-18T15:23:49;-2.20;99.90
5779;DHT22;2916;49.798;10.022;2022-12-18T15:26:20;-2.20;99.90
5779;DHT22;2916;49.798;10.022;2022-12-18T15:28:49;-2.30;99.90
5779;DHT22;2916;49.798;10.022;2022-12-18T15:31:34;-2.20;99.90
5779;DHT22;2916;49.798;10.022;2022-12-18T15:34:12;-2.20;99.90
5779;DHT22;2916;49.798;10.022;2022-12-18T15:36:40;-2.30;99.90
5779;DHT22;2916;49.798;10.022;2022-12-18T15:39:11;-2.20;99.90
5779;DHT22;2916;49.798;10.022;2022-12-18T15:41:40;-2.30;99.90
5779;DHT22;2916;49.798;10.022;2022-12-18T15:44:27;-2.30;99.90
5779;DHT22;2916;49.798;10.022;2022-12-18T15:46:56;-2.30;99.90
5779;DHT22;2916;49.798;10.022;2022-12-18T15:49:23;-2.30;99.90
5779;DHT22;2916;49.798;10.022;2022-12-18T15:51:52;-2.40;99.90
5779;DHT22;2916;49.798;10.022;2022-12-18T15:54:20;-2.40;99.90
5779;DHT22;2916;49.798;10.022;2022-12-18T15:57:10;-2.40;99.90
5779;DHT22;2916;49.798;10.022;2022-12-18T15:59:48;-2.40;99.90
5779;DHT22;2916;49.798;10.022;2022-12-18T16:02:17;-2.40;99.90
5779;DHT22;2916;49.798;10.022;2022-12-18T16:04:44;-2.40;99.90
5779;DHT22;2916;49.798;10.022;2022-12-18T16:07:12;-2.40;99.90
5779;DHT22;2916;49.798;10.022;2022-12-18T16:09:39;-2.40;99.90
5779;DHT22;2916;49.798;10.022;2022-12-18T16:12:10;-2.40;99.90